createdAt,value
2023-04-19T00:00:16.576Z,9.76
2023-04-19T00:02:44.738Z,9.73
2023-04-19T00:05:15.953Z,9.76
2023-04-19T00:07:44.064Z,9.73
2023-04-19T00:10:12.342Z,9.72
2023-04-19T00:12:41.824Z,9.75
2023-04-19T00:15:10.729Z,9.69
2023-04-19T00:17:38.794Z,9.70
2023-04-19T00:20:08.388Z,9.75
2023-04-19T00:22:36.821Z,9.72
2023-04-19T00:25:05.231Z,9.67
2023-04-19T00:27:33.593Z,9.70
2023-04-19T00:30:03.293Z,9.69
2023-04-19T00:32:31.464Z,9.78
2023-04-19T00:34:59.662Z,9.73
2023-04-19T00:37:27.667Z,9.78
2023-04-19T00:39:55.628Z,9.75
2023-04-19T00:42:23.685Z,9.77
2023-04-19T00:44:51.800Z,9.77
2023-04-19T00:47:21.520Z,9.78
2023-04-19T00:49:49.580Z,9.72
2023-04-19T00:52:17.683Z,9.72
2023-04-19T00:54:46.780Z,9.78
2023-04-19T00:57:15.592Z,9.76
2023-04-19T00:59:44.115Z,9.77
2023-04-19T01:02:12.333Z,9.73
2023-04-19T01:04:41.877Z,9.71
2023-04-19T01:07:10.550Z,9.72
2023-04-19T01:09:42.054Z,9.70
2023-04-19T01:12:10.157Z,9.71
2023-04-19T01:14:38.227Z,9.71
2023-04-19T01:17:06.536Z,9.69
2023-04-19T01:19:36.547Z,9.66
2023-04-19T01:22:07.164Z,9.63
2023-04-19T01:24:36.633Z,9.63
2023-04-19T01:27:04.800Z,9.62
2023-04-19T01:29:32.917Z,9.53
2023-04-19T01:32:01.193Z,9.56
2023-04-19T01:34:29.430Z,9.53
2023-04-19T01:36:58.024Z,9.52
2023-04-19T01:39:27.557Z,9.53
2023-04-19T01:41:57.010Z,9.55
2023-04-19T01:44:25.391Z,9.60
2023-04-19T01:46:53.785Z,9.57
2023-04-19T01:49:22.091Z,9.49
2023-04-19T01:51:50.642Z,9.48
2023-04-19T01:54:18.732Z,9.38
2023-04-19T01:56:46.827Z,9.39
2023-04-19T01:59:16.530Z,9.40
2023-04-19T02:01:44.746Z,9.34
2023-04-19T02:04:13.155Z,9.32
2023-04-19T02:06:41.370Z,9.21
2023-04-19T02:09:09.589Z,9.17
2023-04-19T02:11:37.672Z,9.14
2023-04-19T02:14:06.298Z,9.09
2023-04-19T02:16:36.351Z,9.03
2023-04-19T02:19:05.001Z,9.04
2023-04-19T02:21:33.034Z,9.06
2023-04-19T02:24:01.214Z,9.02
2023-04-19T02:26:29.234Z,9.00
2023-04-19T02:28:57.267Z,8.94
2023-04-19T02:31:25.438Z,8.95
2023-04-19T02:33:55.984Z,8.99
2023-04-19T02:36:24.171Z,9.12
2023-04-19T02:38:52.298Z,9.05
2023-04-19T02:41:20.689Z,9.06
2023-04-19T02:43:48.849Z,9.05
2023-04-19T02:46:16.893Z,9.11
2023-04-19T02:48:44.962Z,9.24
2023-04-19T02:51:18.489Z,9.22
2023-04-19T02:53:46.594Z,9.25
2023-04-19T02:56:14.657Z,9.26
2023-04-19T02:58:42.765Z,9.31
2023-04-19T03:01:11.213Z,9.35
2023-04-19T03:03:39.404Z,9.38
2023-04-19T03:06:07.859Z,9.38
2023-04-19T03:08:37.469Z,9.36
2023-04-19T03:11:05.604Z,9.43
2023-04-19T03:13:33.648Z,9.40
2023-04-19T03:16:01.835Z,9.36
2023-04-19T03:18:30.281Z,9.37
2023-04-19T03:20:58.486Z,9.40
2023-04-19T03:23:27.552Z,9.37
2023-04-19T03:25:57.551Z,9.38
2023-04-19T03:28:27.074Z,9.40
2023-04-19T03:30:55.977Z,9.47
2023-04-19T03:33:24.128Z,9.49
2023-04-19T03:35:52.743Z,9.47
2023-04-19T03:38:21.464Z,9.51
2023-04-19T03:40:50.187Z,9.53
2023-04-19T03:43:19.740Z,9.50
2023-04-19T03:45:47.877Z,9.42
2023-04-19T03:48:15.925Z,9.47
2023-04-19T03:50:44.030Z,9.39
2023-04-19T03:53:12.194Z,9.34
2023-04-19T03:55:40.596Z,9.33
2023-04-19T03:58:08.678Z,9.47
2023-04-19T04:00:39.102Z,9.54
2023-04-19T04:03:07.363Z,9.53
2023-04-19T04:05:36.674Z,9.61
2023-04-19T04:08:05.005Z,9.60
2023-04-19T04:10:37.043Z,9.62
2023-04-19T04:13:05.187Z,9.53
2023-04-19T04:15:33.262Z,9.50
2023-04-19T04:18:02.986Z,9.50
2023-04-19T04:20:31.785Z,9.49
2023-04-19T04:22:59.884Z,9.48
2023-04-19T04:25:29.042Z,9.45
2023-04-19T04:27:57.286Z,9.45
2023-04-19T04:30:27.951Z,9.48
2023-04-19T04:32:58.223Z,9.63
2023-04-19T04:35:28.039Z,9.62
2023-04-19T04:37:56.638Z,9.66
2023-04-19T04:40:25.084Z,9.69
2023-04-19T04:42:54.330Z,9.72
2023-04-19T04:45:22.784Z,9.76
2023-04-19T04:50:21.542Z,9.82
2023-04-19T04:52:52.367Z,9.92
2023-04-19T04:55:20.828Z,9.95
2023-04-19T04:57:49.031Z,10.07
2023-04-19T05:00:17.830Z,10.22
2023-04-19T05:02:46.377Z,10.48
2023-04-19T05:05:14.400Z,10.61
2023-04-19T05:07:42.715Z,10.59
2023-04-19T05:10:12.655Z,10.76
2023-04-19T05:12:41.406Z,10.82
2023-04-19T05:15:12.064Z,10.82
2023-04-19T05:17:40.232Z,10.79
2023-04-19T05:20:09.401Z,10.82
2023-04-19T05:22:37.894Z,10.87
2023-04-19T05:25:07.554Z,10.93
2023-04-19T05:27:37.133Z,10.95
2023-04-19T05:30:06.253Z,11.03
2023-04-19T05:32:34.518Z,10.97
2023-04-19T05:35:02.644Z,11.05
2023-04-19T05:37:30.692Z,11.07
2023-04-19T05:39:59.484Z,10.96
2023-04-19T05:42:27.735Z,11.04
2023-04-19T05:44:57.680Z,11.05
2023-04-19T05:47:25.942Z,11.19
2023-04-19T05:49:54.225Z,11.16
2023-04-19T05:52:24.490Z,11.19
2023-04-19T05:54:52.832Z,11.35
2023-04-19T05:57:20.899Z,11.34
2023-04-19T05:59:48.987Z,11.44
2023-04-19T06:02:18.736Z,11.47
2023-04-19T06:04:47.200Z,11.53
2023-04-19T06:07:27.560Z,11.70
2023-04-19T06:09:59.840Z,11.92
2023-04-19T06:12:27.987Z,11.83
2023-04-19T06:14:57.456Z,11.98
2023-04-19T06:17:26.997Z,12.03
2023-04-19T06:19:55.856Z,12.05
2023-04-19T06:22:24.013Z,12.20
2023-04-19T06:24:52.095Z,12.25
2023-04-19T06:27:20.310Z,12.24
2023-04-19T06:29:49.877Z,12.23
2023-04-19T06:32:19.552Z,12.35
2023-04-19T06:34:49.110Z,12.44
2023-04-19T06:37:17.229Z,12.56
2023-04-19T06:39:45.408Z,12.67
2023-04-19T06:42:13.611Z,12.60
2023-04-19T06:44:41.641Z,12.72
2023-04-19T06:47:09.798Z,12.91
2023-04-19T06:49:37.839Z,13.10
2023-04-19T06:52:07.290Z,13.14
2023-04-19T06:54:35.459Z,13.27
2023-04-19T06:57:03.736Z,13.41
2023-04-19T06:59:32.596Z,13.59
2023-04-19T07:02:00.991Z,13.67
2023-04-19T07:04:29.361Z,13.67
2023-04-19T07:06:57.577Z,13.83
2023-04-19T07:09:27.544Z,13.90
2023-04-19T07:11:55.964Z,13.93
2023-04-19T07:14:25.353Z,14.02
2023-04-19T07:16:54.120Z,14.27
2023-04-19T07:19:22.941Z,14.29
2023-04-19T07:21:51.644Z,14.23
2023-04-19T07:24:19.887Z,14.45
2023-04-19T07:26:49.416Z,14.25
2023-04-19T07:29:17.771Z,14.27
2023-04-19T07:31:46.268Z,14.14
2023-04-19T07:34:14.780Z,14.19
2023-04-19T07:36:43.000Z,14.35
2023-04-19T07:39:11.177Z,14.36
2023-04-19T07:41:39.712Z,14.48
2023-04-19T07:44:10.473Z,14.62
2023-04-19T07:46:38.955Z,14.70
2023-04-19T07:49:07.097Z,14.76
2023-04-19T07:51:35.058Z,14.76
2023-04-19T07:54:03.955Z,14.89
2023-04-19T07:56:32.167Z,15.13
2023-04-19T07:59:08.456Z,15.04
2023-04-19T08:01:38.941Z,14.97
2023-04-19T08:04:08.111Z,14.93
2023-04-19T08:06:39.861Z,14.98
2023-04-19T08:09:08.489Z,15.07
2023-04-19T08:11:36.486Z,15.12
2023-04-19T08:14:11.901Z,15.18
2023-04-19T08:19:18.820Z,15.64
2023-04-19T08:21:46.967Z,15.67
2023-04-19T08:24:15.244Z,15.76
2023-04-19T08:26:44.004Z,15.70
2023-04-19T08:29:13.224Z,15.81
2023-04-19T08:31:44.902Z,15.88
2023-04-19T08:34:14.342Z,15.97
2023-04-19T08:39:21.156Z,15.88
2023-04-19T08:42:06.787Z,15.72
2023-04-19T08:44:48.977Z,15.90
2023-04-19T08:47:32.185Z,15.96
2023-04-19T08:52:47.849Z,15.85
2023-04-19T08:55:22.891Z,15.90
2023-04-19T08:57:50.929Z,15.78
2023-04-19T09:00:20.162Z,15.80
2023-04-19T09:02:49.899Z,15.62
2023-04-19T09:05:21.196Z,15.52
2023-04-19T09:07:49.772Z,15.52
2023-04-19T09:10:19.979Z,15.75
2023-04-19T09:13:02.189Z,16.08
2023-04-19T09:15:40.912Z,16.29
2023-04-19T09:18:10.916Z,16.35
2023-04-19T09:20:42.070Z,16.47
2023-04-19T09:23:12.842Z,16.71
2023-04-19T09:26:05.845Z,16.83
2023-04-19T09:28:29.745Z,16.94
2023-04-19T09:31:07.004Z,16.85
2023-04-19T09:33:40.136Z,16.73
2023-04-19T09:36:10.914Z,16.51
2023-04-19T09:38:48.261Z,16.41
2023-04-19T09:41:17.294Z,16.40
2023-04-19T09:44:05.598Z,16.48
2023-04-19T09:46:35.236Z,16.46
2023-04-19T09:49:25.062Z,16.45
2023-04-19T09:52:07.372Z,16.39
2023-04-19T09:54:35.910Z,16.45
2023-04-19T09:57:04.479Z,16.45
2023-04-19T09:59:32.600Z,16.47
2023-04-19T10:02:02.281Z,16.58
2023-04-19T10:04:44.007Z,16.53
2023-04-19T10:07:30.280Z,16.60
2023-04-19T10:15:07.292Z,17.27
2023-04-19T10:17:36.121Z,17.34
2023-04-19T10:20:09.287Z,17.60
2023-04-19T10:22:39.829Z,17.88
2023-04-19T10:25:13.309Z,18.06
2023-04-19T10:27:48.957Z,18.00
2023-04-19T10:30:21.724Z,17.70
2023-04-19T10:32:56.707Z,17.63
2023-04-19T10:35:26.439Z,17.71
2023-04-19T10:38:07.488Z,17.72
2023-04-19T10:41:01.007Z,17.71
2023-04-19T10:43:30.777Z,17.58
2023-04-19T10:46:02.647Z,17.67
2023-04-19T10:48:43.924Z,17.64
2023-04-19T10:51:17.205Z,17.84
2023-04-19T10:53:48.727Z,17.86
2023-04-19T10:56:17.919Z,17.92
2023-04-19T10:59:13.455Z,17.80
2023-04-19T11:01:43.575Z,17.67
2023-04-19T11:04:13.071Z,17.57
2023-04-19T11:07:01.424Z,17.38
2023-04-19T11:09:34.347Z,17.30
2023-04-19T11:12:04.720Z,17.10
2023-04-19T11:14:34.981Z,17.11
2023-04-19T11:17:16.080Z,16.91
2023-04-19T11:19:46.054Z,17.10
2023-04-19T11:22:14.208Z,17.42
2023-04-19T11:24:48.426Z,18.01
2023-04-19T11:27:16.981Z,18.45
2023-04-19T11:29:45.363Z,18.44
2023-04-19T11:32:13.481Z,18.43
2023-04-19T11:34:42.362Z,18.70
2023-04-19T11:37:12.273Z,18.47
2023-04-19T11:39:48.974Z,18.11
2023-04-19T11:42:21.336Z,18.25
2023-04-19T11:44:57.738Z,18.34
2023-04-19T11:47:26.200Z,17.71
2023-04-19T11:49:56.543Z,17.56
2023-04-19T11:52:26.618Z,17.39
2023-04-19T11:54:56.279Z,17.34
2023-04-19T11:57:31.508Z,17.21
2023-04-19T12:00:11.562Z,17.29
2023-04-19T12:02:42.236Z,17.12
2023-04-19T12:05:12.522Z,17.00
2023-04-19T12:08:05.138Z,16.85
2023-04-19T12:10:35.922Z,16.66
2023-04-19T12:13:18.224Z,16.61
2023-04-19T12:15:49.240Z,16.54
2023-04-19T12:18:17.621Z,16.66
2023-04-19T12:20:47.913Z,16.66
2023-04-19T12:23:16.785Z,16.50
2023-04-19T12:25:48.486Z,15.58
2023-04-19T12:28:17.622Z,14.80
2023-04-19T12:30:45.821Z,14.63
2023-04-19T12:33:13.984Z,14.84
2023-04-19T12:35:43.092Z,14.93
2023-04-19T12:38:11.417Z,15.05
2023-04-19T12:40:39.583Z,15.18
2023-04-19T12:43:09.255Z,15.22
2023-04-19T12:45:37.499Z,14.98
2023-04-19T12:48:07.250Z,14.66
2023-04-19T12:50:35.382Z,14.65
2023-04-19T12:53:03.520Z,14.57
2023-04-19T12:55:31.859Z,14.24
2023-04-19T12:57:59.946Z,14.33
2023-04-19T13:00:30.273Z,14.45
2023-04-19T13:02:58.597Z,14.67
2023-04-19T13:05:26.853Z,14.68
2023-04-19T13:07:54.939Z,14.72
2023-04-19T13:10:23.093Z,14.84
2023-04-19T13:12:51.631Z,14.88
2023-04-19T13:15:20.076Z,15.00
2023-04-19T13:17:49.874Z,15.01
2023-04-19T13:20:19.796Z,15.16
2023-04-19T13:22:48.603Z,15.10
2023-04-19T13:25:16.713Z,14.84
2023-04-19T13:27:46.532Z,14.87
2023-04-19T13:30:16.432Z,14.99
2023-04-19T13:32:45.010Z,15.06
2023-04-19T13:35:14.557Z,14.86
2023-04-19T13:37:44.573Z,14.85
2023-04-19T13:40:19.466Z,14.96
2023-04-19T13:42:48.218Z,15.08
2023-04-19T13:45:16.428Z,15.45
2023-04-19T13:47:44.624Z,15.83
2023-04-19T13:50:15.154Z,15.93
2023-04-19T13:52:43.685Z,16.08
2023-04-19T13:55:11.813Z,16.01
2023-04-19T13:57:40.350Z,15.72
2023-04-19T14:00:09.812Z,15.50
2023-04-19T14:02:38.179Z,15.90
2023-04-19T14:05:07.325Z,16.18
2023-04-19T14:07:37.145Z,16.42
2023-04-19T14:10:07.089Z,16.57
2023-04-19T14:12:35.184Z,16.53
2023-04-19T14:15:03.370Z,16.60
2023-04-19T14:17:31.600Z,16.50
2023-04-19T14:19:59.858Z,16.39
2023-04-19T14:22:27.953Z,16.33
2023-04-19T14:24:57.549Z,16.32
2023-04-19T14:27:26.429Z,16.37
2023-04-19T14:29:54.791Z,16.44
2023-04-19T14:32:26.637Z,16.34
2023-04-19T14:34:56.239Z,16.38
2023-04-19T14:37:25.265Z,16.47
2023-04-19T14:39:54.059Z,16.65
2023-04-19T14:42:23.638Z,16.71
2023-04-19T14:44:53.227Z,16.65
2023-04-19T14:47:21.903Z,16.54
2023-04-19T14:49:50.676Z,16.46
2023-04-19T14:52:19.021Z,16.56
2023-04-19T14:54:47.279Z,16.43
2023-04-19T14:57:15.695Z,16.41
2023-04-19T14:59:45.613Z,16.54
2023-04-19T15:02:13.943Z,16.58
2023-04-19T15:04:42.537Z,16.61
2023-04-19T15:07:11.185Z,16.57
2023-04-19T15:09:40.338Z,16.43
2023-04-19T15:12:08.611Z,16.33
2023-04-19T15:14:36.599Z,16.16
2023-04-19T15:17:06.518Z,15.90
2023-04-19T15:19:34.726Z,15.69
2023-04-19T15:22:04.172Z,15.58
2023-04-19T15:24:32.594Z,15.53
2023-04-19T15:27:01.693Z,15.43
2023-04-19T15:29:30.500Z,15.38
2023-04-19T15:31:58.552Z,15.24
2023-04-19T15:34:28.786Z,15.20
2023-04-19T15:36:57.706Z,15.12
2023-04-19T15:39:26.300Z,15.16
2023-04-19T15:41:54.628Z,15.13
2023-04-19T15:44:23.749Z,15.10
2023-04-19T15:46:56.434Z,15.03
2023-04-19T15:49:25.501Z,15.10
2023-04-19T15:51:58.811Z,15.11
2023-04-19T15:54:28.921Z,15.12
2023-04-19T15:56:58.534Z,15.09
2023-04-19T15:59:26.655Z,15.06
2023-04-19T16:01:56.112Z,15.16
2023-04-19T16:04:24.385Z,15.11
2023-04-19T16:06:52.519Z,15.06
2023-04-19T16:09:23.217Z,15.08
2023-04-19T16:11:51.714Z,14.96
2023-04-19T16:14:19.791Z,14.89
2023-04-19T16:16:49.457Z,14.74
2023-04-19T16:19:17.823Z,14.80
2023-04-19T16:21:46.581Z,14.87
2023-04-19T16:24:14.686Z,14.83
2023-04-19T16:26:44.414Z,14.82
2023-04-19T16:29:12.867Z,14.75
2023-04-19T16:31:41.173Z,14.78
2023-04-19T16:34:09.296Z,14.68
2023-04-19T16:36:37.464Z,14.59
2023-04-19T16:39:05.624Z,14.44
2023-04-19T16:41:33.733Z,14.31
2023-04-19T16:44:03.171Z,14.21
2023-04-19T16:46:31.551Z,14.09
2023-04-19T16:48:59.793Z,14.18
2023-04-19T16:51:28.375Z,14.12
2023-04-19T16:53:56.746Z,13.99
2023-04-19T16:56:25.506Z,13.96
2023-04-19T16:58:56.437Z,13.94
2023-04-19T17:01:26.147Z,13.95
2023-04-19T17:03:54.524Z,13.87
2023-04-19T17:06:23.262Z,13.87
2023-04-19T17:08:51.321Z,13.91
2023-04-19T17:11:19.453Z,13.96
2023-04-19T17:13:47.647Z,13.99
2023-04-19T17:16:15.742Z,13.96
2023-04-19T17:18:45.302Z,13.88
2023-04-19T17:21:16.248Z,13.80
2023-04-19T17:23:46.667Z,13.81
2023-04-19T17:26:16.990Z,13.83
2023-04-19T17:28:45.253Z,13.89
2023-04-19T17:31:13.547Z,13.78
2023-04-19T17:33:41.590Z,13.64
2023-04-19T17:36:11.377Z,13.57
2023-04-19T17:38:39.491Z,13.44
2023-04-19T17:41:08.700Z,13.50
2023-04-19T17:43:37.001Z,13.51
2023-04-19T17:46:05.342Z,13.44
2023-04-19T17:48:34.218Z,13.46
2023-04-19T17:51:02.397Z,13.42
2023-04-19T17:53:32.090Z,13.35
2023-04-19T17:56:00.549Z,13.23
2023-04-19T17:58:28.738Z,13.23
2023-04-19T18:00:57.149Z,13.20
2023-04-19T18:03:25.407Z,13.15
2023-04-19T18:05:53.575Z,13.10
2023-04-19T18:08:21.850Z,13.00
2023-04-19T18:10:51.494Z,12.92
2023-04-19T18:13:19.661Z,12.89
2023-04-19T18:15:47.756Z,12.83
2023-04-19T18:18:16.030Z,12.79
2023-04-19T18:20:44.428Z,12.75
2023-04-19T18:23:12.493Z,12.70
2023-04-19T18:25:40.624Z,12.67
2023-04-19T18:28:10.815Z,12.60
2023-04-19T18:30:38.987Z,12.61
2023-04-19T18:33:07.240Z,12.60
2023-04-19T18:35:36.699Z,12.62
2023-04-19T18:38:05.772Z,12.59
2023-04-19T18:40:34.011Z,12.58
2023-04-19T18:43:02.456Z,12.58
2023-04-19T18:45:33.273Z,12.48
2023-04-19T18:48:02.207Z,12.38
2023-04-19T18:50:31.638Z,12.33
2023-04-19T18:53:02.137Z,12.31
2023-04-19T18:55:31.255Z,12.35
2023-04-19T18:58:01.380Z,12.31
2023-04-19T19:00:31.517Z,12.22
2023-04-19T19:03:00.948Z,12.22
2023-04-19T19:05:31.145Z,12.24
2023-04-19T19:07:59.723Z,12.28
2023-04-19T19:10:49.828Z,12.25
2023-04-19T19:13:16.344Z,12.25
2023-04-19T19:15:45.813Z,12.26
2023-04-19T19:18:15.041Z,12.28
2023-04-19T19:20:43.581Z,12.27
2023-04-19T19:23:13.105Z,12.16
2023-04-19T19:25:42.489Z,12.11
2023-04-19T19:28:13.011Z,12.02
2023-04-19T19:30:42.974Z,12.04
2023-04-19T19:33:13.317Z,12.03
2023-04-19T19:35:41.730Z,11.99
2023-04-19T19:38:09.907Z,11.94
2023-04-19T19:40:59.368Z,11.93
2023-04-19T19:43:26.492Z,11.94
2023-04-19T19:45:54.662Z,11.97
2023-04-19T19:48:26.072Z,11.95
2023-04-19T19:51:20.809Z,11.94
2023-04-19T19:53:43.508Z,11.88
2023-04-19T19:56:19.019Z,11.84
2023-04-19T19:58:51.961Z,11.86
2023-04-19T20:01:22.646Z,11.88
2023-04-19T20:03:55.793Z,11.89
2023-04-19T20:07:21.543Z,11.89
2023-04-19T20:09:15.056Z,11.86
2023-04-19T20:11:43.410Z,11.86
2023-04-19T20:14:11.849Z,11.85
2023-04-19T20:16:40.860Z,11.90
2023-04-19T20:19:11.689Z,11.97
2023-04-19T20:21:43.856Z,11.98
2023-04-19T20:24:12.122Z,11.96
2023-04-19T20:26:40.277Z,11.92
2023-04-19T20:29:08.931Z,11.85
2023-04-19T20:31:37.211Z,11.84
2023-04-19T20:34:05.610Z,11.82
2023-04-19T20:36:35.584Z,11.76
2023-04-19T20:39:09.852Z,11.71
2023-04-19T20:41:38.169Z,11.70
2023-04-19T20:44:06.631Z,11.69
2023-04-19T20:46:36.005Z,11.68
2023-04-19T20:49:04.136Z,11.68
2023-04-19T20:51:32.885Z,11.65
2023-04-19T20:54:02.564Z,11.65
2023-04-19T20:56:30.838Z,11.66
2023-04-19T20:58:59.085Z,11.67
2023-04-19T21:01:27.172Z,11.64
2023-04-19T21:03:55.669Z,11.64
2023-04-19T21:06:24.323Z,11.64
2023-04-19T21:08:52.472Z,11.62
2023-04-19T21:11:22.678Z,11.59
2023-04-19T21:13:50.759Z,11.58
2023-04-19T21:16:18.938Z,11.67
2023-04-19T21:18:47.098Z,11.76
2023-04-19T21:21:15.299Z,11.77
2023-04-19T21:23:43.388Z,11.86
2023-04-19T21:26:12.510Z,11.87
2023-04-19T21:28:41.959Z,11.82
2023-04-19T21:31:10.103Z,11.83
2023-04-19T21:33:40.325Z,11.81
2023-04-19T21:36:08.827Z,11.74
2023-04-19T21:38:36.954Z,11.66
2023-04-19T21:41:07.336Z,11.60
2023-04-19T21:43:35.760Z,11.58
2023-04-19T21:46:05.829Z,11.53
2023-04-19T21:48:34.011Z,11.50
2023-04-19T21:51:02.508Z,11.48
2023-04-19T21:53:49.171Z,11.51
2023-04-19T21:56:17.218Z,11.50
2023-04-19T21:58:45.341Z,11.53
2023-04-19T22:01:14.960Z,11.54
2023-04-19T22:03:43.399Z,11.55
2023-04-19T22:06:11.664Z,11.50
2023-04-19T22:08:39.791Z,11.52
2023-04-19T22:11:08.106Z,11.52
2023-04-19T22:13:37.463Z,11.46
2023-04-19T22:16:08.567Z,11.40
2023-04-19T22:18:38.320Z,11.36
2023-04-19T22:21:06.556Z,11.39
2023-04-19T22:23:35.675Z,11.35
2023-04-19T22:26:04.925Z,11.35
2023-04-19T22:28:33.740Z,11.38
2023-04-19T22:31:01.980Z,11.27
2023-04-19T22:33:30.199Z,11.21
2023-04-19T22:35:59.987Z,11.18
2023-04-19T22:38:28.098Z,11.21
2023-04-19T22:40:56.327Z,11.18
2023-04-19T22:43:24.579Z,11.14
2023-04-19T22:45:52.837Z,11.09
2023-04-19T22:48:21.015Z,11.06
2023-04-19T22:50:50.395Z,11.01
2023-04-19T22:53:19.961Z,10.98
2023-04-19T22:55:48.561Z,10.91
2023-04-19T22:58:16.747Z,10.87
2023-04-19T23:00:44.887Z,10.79
2023-04-19T23:03:13.016Z,10.72
2023-04-19T23:05:41.772Z,10.71
2023-04-19T23:08:10.078Z,10.73
2023-04-19T23:10:39.737Z,10.66
2023-04-19T23:13:10.271Z,10.65
2023-04-19T23:15:39.417Z,10.65
2023-04-19T23:18:07.789Z,10.68
2023-04-19T23:20:36.091Z,10.65
2023-04-19T23:23:05.292Z,10.62
2023-04-19T23:25:33.505Z,10.57
2023-04-19T23:28:03.048Z,10.49
2023-04-19T23:30:32.090Z,10.41
2023-04-19T23:33:00.324Z,10.34
2023-04-19T23:35:28.752Z,10.27
2023-04-19T23:37:56.885Z,10.24
2023-04-19T23:40:25.007Z,10.18
2023-04-19T23:42:53.180Z,10.14
2023-04-19T23:45:22.894Z,10.12
2023-04-19T23:47:51.421Z,10.08
2023-04-19T23:50:19.678Z,10.07
2023-04-19T23:52:47.854Z,10.07
2023-04-19T23:55:15.976Z,10.05
2023-04-19T23:57:44.147Z,10.00
